logo
Search for airport 
image banner adimage banner adimage banner ad
image banner ad

SCVI - Villarrica

Located in Villarrica, Chile

ICAO - SCVI, IATA -

Data provided by Airmate  

General information

Coordinates: S39°19'2" W72°13'42"
Elevation is 967 feet MSL.
Magnetic variation is 6° East
View others Airports in Araucanía

Operational data

Special qualification required
Current time UTC:
Current local time:
Weather at : SCQP - La Araucania ( 57 km )
METAR: SCQP 141700Z VRB02KT 3400 BR SCT002 OVC004 04/04 Q1023
TAF: TAF SCQP 141630Z 1418/1518 VRB02KT 3000 BR SCT002 BKN006 TX07/1420Z TNM01/1512Z BECMG 1419/1421 9999 NSW SCT010 BKN020 BECMG 1500/1502 2000 BR BKN007 BECMG 1504/1506 0500 FG VV002 BECMG 1516/1518 1500 BR BKN005
View NOTAMs / SUP AIP / TFR affecting this airport [VIEW]
Communications frequencies: [VIEW]

Runways:

RWY identifierQFULength (ft)Width (ft)SurfaceLDA (ft)
15158°327043ASPH
33338°327043ASPH

Airport contact information

Address: Villarrica Chile

Other aviation service providers

Aviation club (not for profit)

Club Aéreo Villarrica

Club Aéreo Villarrica

Satellite view of SCVI